Time;durP1;ratioP1;P1;durP2;ratioP2;P2;SDS_P1;SDS_P2;PMS_P1;PMS_P2;Temp;Humidity;BMP_temperature;BMP_pressure;BME280_temperature;BME280_humidity;BME280_pressure;Samples;Min_cycle;Max_cycle;Signal;HPM_P1;HPM_P2
2022/04/08 00:00:49;;;;;;;15.38;2.00;;;;;;;;;;4981350;28;20043;-75
2022/04/08 00:03:15;;;;;;;13.05;1.63;;;;;;;;;;4977077;28;20503;-75
2022/04/08 00:05:41;;;;;;;9.82;1.98;;;;;;;;;;4966875;28;20054;-74
2022/04/08 00:08:08;;;;;;;22.40;2.28;;;;;;;;;;4949832;28;20039;-74
2022/04/08 00:10:34;;;;;;;8.77;1.92;;;;;;;;;;4971835;28;20049;-74
2022/04/08 00:13:00;;;;;;;12.95;1.67;;;;;;;;;;4994231;28;20129;-74
2022/04/08 00:15:26;;;;;;;18.83;1.90;;;;;;;;;;4972444;28;20137;-74
2022/04/08 00:17:52;;;;;;;13.85;2.00;;;;;;;;;;4977371;28;20050;-74
2022/04/08 00:20:18;;;;;;;11.73;1.80;;;;;;;;;;4989243;28;20050;-74
2022/04/08 00:22:45;;;;;;;10.48;1.80;;;;;;;;;;4978652;28;20047;-74
2022/04/08 00:25:12;;;;;;;11.07;1.60;;;;;;;;;;4988971;28;20057;-74
2022/04/08 00:27:38;;;;;;;11.70;1.60;;;;;;;;;;4975665;28;20130;-74
2022/04/08 00:30:05;;;;;;;13.25;1.75;;;;;;;;;;4996611;28;20049;-73
2022/04/08 00:32:33;;;;;;;19.05;1.88;;;;;;;;;;4978654;28;20054;-73
2022/04/08 00:34:59;;;;;;;11.70;1.63;;;;;;;;;;4980032;28;20490;-74
2022/04/08 00:37:25;;;;;;;11.18;1.45;;;;;;;;;;4994554;28;20294;-72
2022/04/08 00:39:51;;;;;;;10.65;1.88;;;;;;;;;;4978179;28;20042;-73
2022/04/08 00:42:17;;;;;;;8.73;1.60;;;;;;;;;;4986232;28;20401;-73
2022/04/08 00:44:43;;;;;;;11.15;1.50;;;;;;;;;;4972119;28;20437;-74
2022/04/08 00:47:11;;;;;;;11.60;1.73;;;;;;;;;;4991911;28;20108;-74
2022/04/08 00:49:37;;;;;;;9.10;1.67;;;;;;;;;;4961342;28;20592;-74
2022/04/08 00:52:04;;;;;;;10.75;1.75;;;;;;;;;;4969327;28;20445;-74
2022/04/08 00:54:31;;;;;;;10.15;1.65;;;;;;;;;;4976216;28;20516;-74
2022/04/08 00:56:57;;;;;;;9.65;1.35;;;;;;;;;;4963110;28;20046;-72
2022/04/08 00:59:27;;;;;;;7.10;1.63;;;;;;;;;;4980430;28;20050;-72
2022/04/08 01:01:53;;;;;;;11.23;1.70;;;;;;;;;;4984237;28;20500;-72
2022/04/08 01:04:21;;;;;;;18.00;2.15;;;;;;;;;;4986198;28;20039;-72
2022/04/08 01:06:47;;;;;;;6.35;1.75;;;;;;;;;;4970081;28;20505;-73
2022/04/08 01:09:13;;;;;;;11.35;2.10;;;;;;;;;;4975924;28;20517;-73
2022/04/08 01:11:39;;;;;;;5.95;1.00;;;;;;;;;;4979273;28;20043;-74
2022/04/08 01:14:11;;;;;;;4.82;0.95;;;;;;;;;;4988295;28;20070;-75
2022/04/08 01:16:41;;;;;;;3.83;0.90;;;;;;;;;;4986052;28;20105;-74
2022/04/08 01:19:07;;;;;;;5.35;1.08;;;;;;;;;;4990007;28;20489;-73
2022/04/08 01:21:33;;;;;;;1.95;0.90;;;;;;;;;;4979047;28;20043;-73
2022/04/08 01:24:00;;;;;;;4.50;0.80;;;;;;;;;;4975351;28;20049;-73
2022/04/08 01:26:26;;;;;;;3.00;0.98;;;;;;;;;;4973948;28;20074;-73
2022/04/08 01:28:53;;;;;;;2.65;0.55;;;;;;;;;;4992716;28;20508;-73
2022/04/08 01:31:19;;;;;;;6.18;0.70;;;;;;;;;;4992284;28;20039;-74
2022/04/08 01:33:45;;;;;;;5.10;0.80;;;;;;;;;;4984053;28;20516;-73
2022/04/08 01:36:11;;;;;;;6.45;1.10;;;;;;;;;;4989603;28;20050;-73
2022/04/08 01:38:37;;;;;;;7.45;1.00;;;;;;;;;;4981036;28;20047;-73
2022/04/08 01:41:04;;;;;;;5.75;0.80;;;;;;;;;;4966475;28;20515;-75
2022/04/08 01:43:30;;;;;;;4.22;0.90;;;;;;;;;;4986343;28;20038;-73
2022/04/08 01:45:55;;;;;;;5.10;1.00;;;;;;;;;;4975475;28;20109;-74
2022/04/08 01:48:21;;;;;;;7.82;1.15;;;;;;;;;;4971120;28;20066;-73
2022/04/08 01:50:47;;;;;;;12.63;1.38;;;;;;;;;;4955814;28;20446;-74
2022/04/08 01:53:15;;;;;;;6.00;1.00;;;;;;;;;;4945431;29;20047;-74
2022/04/08 01:55:41;;;;;;;4.60;0.98;;;;;;;;;;4956327;28;20054;-74
2022/04/08 01:58:08;;;;;;;8.13;1.17;;;;;;;;;;4964262;28;20410;-73
2022/04/08 02:00:34;;;;;;;11.40;1.60;;;;;;;;;;4967190;28;20051;-74
2022/04/08 02:03:00;;;;;;;9.90;1.27;;;;;;;;;;4955712;28;20051;-73
2022/04/08 02:05:26;;;;;;;6.10;1.20;;;;;;;;;;4971634;28;20391;-74
2022/04/08 02:07:53;;;;;;;6.80;0.90;;;;;;;;;;4975313;28;20055;-75
2022/04/08 02:10:19;;;;;;;7.82;1.23;;;;;;;;;;4962224;28;20059;-74
2022/04/08 02:12:45;;;;;;;5.47;0.95;;;;;;;;;;4962690;28;20051;-75
2022/04/08 02:15:11;;;;;;;5.68;0.95;;;;;;;;;;4955975;28;20047;-75
2022/04/08 02:17:37;;;;;;;7.32;1.33;;;;;;;;;;4959123;28;20043;-74
2022/04/08 02:20:08;;;;;;;7.03;1.20;;;;;;;;;;4974742;28;20058;-74
2022/04/08 02:22:35;;;;;;;6.95;0.93;;;;;;;;;;4969527;28;20066;-74
2022/04/08 02:25:02;;;;;;;8.80;1.30;;;;;;;;;;4968334;28;20552;-74
2022/04/08 02:27:28;;;;;;;8.85;1.20;;;;;;;;;;4965925;28;20050;-73
2022/04/08 02:29:58;;;;;;;9.07;0.90;;;;;;;;;;4973246;28;20501;-74
2022/04/08 02:32:24;;;;;;;6.60;1.05;;;;;;;;;;4964648;28;20095;-74
2022/04/08 02:34:51;;;;;;;7.32;1.10;;;;;;;;;;4955896;28;20051;-74
2022/04/08 02:37:18;;;;;;;7.20;1.20;;;;;;;;;;4972619;28;20097;-74
2022/04/08 02:39:44;;;;;;;9.88;1.25;;;;;;;;;;4954565;28;20410;-74
2022/04/08 02:42:10;;;;;;;8.38;1.77;;;;;;;;;;4967013;28;20122;-73
2022/04/08 02:44:36;;;;;;;12.70;1.55;;;;;;;;;;4960403;28;20039;-73
2022/04/08 02:47:02;;;;;;;10.23;1.48;;;;;;;;;;4955545;28;20131;-75
2022/04/08 02:49:28;;;;;;;9.25;1.40;;;;;;;;;;4944297;28;20516;-74
2022/04/08 02:51:54;;;;;;;9.20;1.20;;;;;;;;;;4969980;28;20046;-74
2022/04/08 02:54:20;;;;;;;10.00;1.42;;;;;;;;;;4958085;28;20047;-74
2022/04/08 02:56:46;;;;;;;8.52;1.35;;;;;;;;;;4954863;28;20418;-74
2022/04/08 02:59:13;;;;;;;11.00;1.70;;;;;;;;;;4940813;28;20046;-73
2022/04/08 03:01:39;;;;;;;8.10;0.90;;;;;;;;;;4961635;28;20509;-73
2022/04/08 03:04:06;;;;;;;12.20;1.40;;;;;;;;;;4962778;28;20453;-73
2022/04/08 03:06:33;;;;;;;9.68;1.40;;;;;;;;;;4958932;28;20122;-73
2022/04/08 03:08:59;;;;;;;5.20;1.13;;;;;;;;;;4965938;28;20053;-73
2022/04/08 03:11:25;;;;;;;11.38;1.70;;;;;;;;;;4958854;28;20052;-72
2022/04/08 03:13:51;;;;;;;12.43;1.80;;;;;;;;;;4954680;28;20093;-72
2022/04/08 03:16:17;;;;;;;8.95;1.80;;;;;;;;;;4949719;28;20051;-72
2022/04/08 03:18:42;;;;;;;12.40;2.13;;;;;;;;;;4959384;28;20050;-72
2022/04/08 03:21:08;;;;;;;6.68;1.45;;;;;;;;;;4955890;28;20047;-73
2022/04/08 03:23:35;;;;;;;6.22;1.50;;;;;;;;;;4978541;23;20034;-71
2022/04/08 03:26:00;;;;;;;9.82;1.60;;;;;;;;;;5044898;28;20531;-71
2022/04/08 03:28:26;;;;;;;6.68;1.50;;;;;;;;;;5047193;28;20041;-71
2022/04/08 03:30:53;;;;;;;5.43;1.05;;;;;;;;;;5051479;28;20076;-70
2022/04/08 03:33:19;;;;;;;9.45;1.20;;;;;;;;;;5039348;28;20081;-70
2022/04/08 03:35:45;;;;;;;10.95;1.45;;;;;;;;;;5026552;28;20077;-70
2022/04/08 03:38:11;;;;;;;8.52;1.40;;;;;;;;;;5018209;28;20056;-70
2022/04/08 03:40:37;;;;;;;9.60;1.70;;;;;;;;;;5037239;28;20065;-70
2022/04/08 03:43:04;;;;;;;10.32;1.30;;;;;;;;;;5038838;28;20381;-70
2022/04/08 03:45:30;;;;;;;4.65;1.17;;;;;;;;;;5054426;28;20103;-70
2022/04/08 03:47:56;;;;;;;7.57;1.50;;;;;;;;;;5050958;28;20055;-70
2022/04/08 03:50:22;;;;;;;7.13;1.30;;;;;;;;;;5035979;28;20041;-70
2022/04/08 03:52:48;;;;;;;9.30;1.42;;;;;;;;;;5018081;28;20050;-70
2022/04/08 03:55:14;;;;;;;10.20;1.55;;;;;;;;;;5035624;28;20560;-70
2022/04/08 03:57:40;;;;;;;7.95;1.38;;;;;;;;;;5036086;28;20048;-71
2022/04/08 04:00:08;;;;;;;11.63;1.48;;;;;;;;;;5054442;28;20056;-70
2022/04/08 04:02:34;;;;;;;7.50;1.60;;;;;;;;;;5051454;28;20044;-70
2022/04/08 04:05:01;;;;;;;12.55;1.55;;;;;;;;;;5050439;28;20558;-70
2022/04/08 04:07:27;;;;;;;7.03;1.52;;;;;;;;;;5036044;28;20130;-71
2022/04/08 04:09:54;;;;;;;5.88;1.30;;;;;;;;;;5017076;28;20049;-70
2022/04/08 04:12:20;;;;;;;8.88;1.27;;;;;;;;;;5017798;28;20067;-71
2022/04/08 04:14:46;;;;;;;5.65;1.67;;;;;;;;;;5048145;28;20056;-69
2022/04/08 04:17:13;;;;;;;9.27;1.30;;;;;;;;;;5036344;28;20076;-70
2022/04/08 04:19:39;;;;;;;7.05;1.55;;;;;;;;;;5026471;28;20056;-70
2022/04/08 04:22:05;;;;;;;6.05;1.70;;;;;;;;;;5032222;28;20045;-70
2022/04/08 04:24:32;;;;;;;7.75;1.70;;;;;;;;;;5038408;28;20061;-69
2022/04/08 04:26:58;;;;;;;4.18;1.15;;;;;;;;;;5046294;28;20084;-70
2022/04/08 04:29:24;;;;;;;8.73;1.50;;;;;;;;;;5035343;28;20077;-70
2022/04/08 04:31:50;;;;;;;9.52;2.10;;;;;;;;;;5018579;28;20849;-70
2022/04/08 04:34:16;;;;;;;10.13;2.05;;;;;;;;;;5034088;28;20092;-70
2022/04/08 04:36:42;;;;;;;13.10;2.35;;;;;;;;;;5050103;28;20373;-70
2022/04/08 04:39:08;;;;;;;10.95;1.80;;;;;;;;;;5055471;28;20045;-70
2022/04/08 04:41:34;;;;;;;9.40;1.73;;;;;;;;;;5054474;28;20120;-70
2022/04/08 04:44:00;;;;;;;9.32;1.80;;;;;;;;;;5054059;28;20105;-70
2022/04/08 04:46:26;;;;;;;8.70;1.77;;;;;;;;;;5043337;28;20046;-70
2022/04/08 04:48:52;;;;;;;9.15;2.20;;;;;;;;;;5038909;28;20054;-70
2022/04/08 04:51:18;;;;;;;12.32;2.45;;;;;;;;;;5045827;28;20502;-69
2022/04/08 04:53:44;;;;;;;9.23;2.00;;;;;;;;;;5033126;28;20033;-70
2022/04/08 04:56:10;;;;;;;10.05;1.77;;;;;;;;;;5015050;28;20128;-70
2022/04/08 04:58:36;;;;;;;12.15;2.30;;;;;;;;;;5052089;28;20041;-71
2022/04/08 05:01:02;;;;;;;6.97;1.80;;;;;;;;;;5046505;28;20052;-70
2022/04/08 05:03:28;;;;;;;7.53;1.92;;;;;;;;;;5040966;28;20029;-70
2022/04/08 05:05:54;;;;;;;10.85;2.22;;;;;;;;;;5037261;28;20381;-70
2022/04/08 05:08:23;;;;;;;9.10;2.20;;;;;;;;;;5045906;28;20045;-70
2022/04/08 05:10:49;;;;;;;10.55;2.65;;;;;;;;;;5046511;28;20060;-69
2022/04/08 05:13:15;;;;;;;9.52;2.38;;;;;;;;;;5010494;28;20053;-69
2022/04/08 05:15:42;;;;;;;18.30;3.97;;;;;;;;;;5017175;28;20053;-69
2022/04/08 05:18:15;;;;;;;8.52;2.42;;;;;;;;;;5016868;28;20053;-70
2022/04/08 05:20:41;;;;;;;10.07;2.15;;;;;;;;;;5018617;28;20179;-71
2022/04/08 05:23:07;;;;;;;11.07;2.08;;;;;;;;;;5019452;28;20075;-71
2022/04/08 05:25:34;;;;;;;7.97;2.08;;;;;;;;;;5033409;28;20111;-70
2022/04/08 05:28:00;;;;;;;8.00;2.00;;;;;;;;;;5052082;28;20123;-70
2022/04/08 05:30:26;;;;;;;11.20;2.25;;;;;;;;;;5044314;28;20041;-69
2022/04/08 05:32:52;;;;;;;12.73;2.20;;;;;;;;;;5034508;28;20498;-69
2022/04/08 05:35:18;;;;;;;14.88;2.72;;;;;;;;;;5051707;28;20044;-71
2022/04/08 05:37:45;;;;;;;13.80;2.50;;;;;;;;;;5052001;28;20044;-70
2022/04/08 05:40:13;;;;;;;12.82;2.35;;;;;;;;;;5046985;28;20056;-70
2022/04/08 05:42:39;;;;;;;18.63;2.63;;;;;;;;;;5020398;28;20045;-70
2022/04/08 05:45:09;;;;;;;10.75;2.63;;;;;;;;;;5038122;28;20187;-70
2022/04/08 05:47:35;;;;;;;12.38;3.58;;;;;;;;;;5042525;28;20130;-70
2022/04/08 05:50:01;;;;;;;12.15;1.98;;;;;;;;;;5030889;28;20044;-70
2022/04/08 05:52:27;;;;;;;6.82;2.20;;;;;;;;;;5045134;28;20242;-70
2022/04/08 05:54:54;;;;;;;5.75;2.55;;;;;;;;;;5045230;28;20055;-70
2022/04/08 05:57:20;;;;;;;10.50;2.58;;;;;;;;;;5045836;28;20033;-71
2022/04/08 05:59:49;;;;;;;8.05;2.30;;;;;;;;;;5032403;28;20561;-70
2022/04/08 06:02:15;;;;;;;8.52;1.80;;;;;;;;;;5027764;28;20080;-70
2022/04/08 06:04:41;;;;;;;7.60;2.00;;;;;;;;;;5045920;28;20037;-70
2022/04/08 06:07:07;;;;;;;6.53;2.10;;;;;;;;;;5027567;28;20119;-70
2022/04/08 06:09:33;;;;;;;4.22;1.60;;;;;;;;;;5018299;28;20067;-70
2022/04/08 06:11:59;;;;;;;7.38;1.98;;;;;;;;;;5035320;28;20045;-70
2022/04/08 06:14:30;;;;;;;6.03;1.80;;;;;;;;;;5035281;28;20046;-70
2022/04/08 06:16:56;;;;;;;7.32;2.90;;;;;;;;;;5033228;28;20064;-71
2022/04/08 06:19:22;;;;;;;7.97;2.08;;;;;;;;;;5030007;28;20045;-70
2022/04/08 06:21:48;;;;;;;9.48;2.38;;;;;;;;;;5031135;28;20054;-71
2022/04/08 06:24:14;;;;;;;4.50;1.40;;;;;;;;;;5029877;28;20049;-70
2022/04/08 06:26:40;;;;;;;6.35;1.90;;;;;;;;;;5018256;28;20045;-70
2022/04/08 06:29:06;;;;;;;2.00;1.52;;;;;;;;;;5014392;28;20159;-69
2022/04/08 06:31:33;;;;;;;2.65;1.40;;;;;;;;;;5017516;28;20128;-70
2022/04/08 06:33:59;;;;;;;3.67;1.40;;;;;;;;;;5034785;28;20041;-71
2022/04/08 06:36:29;;;;;;;3.03;1.67;;;;;;;;;;5040848;28;20086;-71
2022/04/08 06:38:55;;;;;;;4.75;1.40;;;;;;;;;;5040641;28;20085;-71
2022/04/08 06:41:21;;;;;;;4.10;1.50;;;;;;;;;;5021944;28;20135;-71
2022/04/08 06:43:47;;;;;;;3.72;1.40;;;;;;;;;;5017906;28;20048;-71
2022/04/08 06:46:13;;;;;;;2.25;1.38;;;;;;;;;;5035274;28;20157;-71
2022/04/08 06:48:39;;;;;;;3.72;1.30;;;;;;;;;;5028751;28;20103;-71
2022/04/08 06:51:05;;;;;;;3.28;1.45;;;;;;;;;;5023745;28;20049;-70
2022/04/08 06:53:32;;;;;;;4.50;1.20;;;;;;;;;;5031778;28;20037;-70
2022/04/08 06:55:59;;;;;;;2.88;1.50;;;;;;;;;;5050172;28;20081;-70
2022/04/08 06:58:28;;;;;;;3.13;1.50;;;;;;;;;;5050061;28;20041;-69
2022/04/08 07:00:53;;;;;;;;;;;;;;;;;;5033459;28;20049;-69
2022/04/08 07:03:19;;;;;;;8.25;2.50;;;;;;;;;;5032537;28;19979;-69
2022/04/08 07:05:45;;;;;;;3.47;1.70;;;;;;;;;;5015386;28;20400;-69
2022/04/08 07:08:11;;;;;;;4.00;1.70;;;;;;;;;;5032912;28;20073;-69
2022/04/08 07:10:40;;;;;;;3.85;1.85;;;;;;;;;;5018472;28;20071;-69
2022/04/08 07:13:07;;;;;;;5.97;1.92;;;;;;;;;;5032763;28;20129;-71
2022/04/08 07:15:33;;;;;;;5.35;1.73;;;;;;;;;;5042466;28;20080;-69
2022/04/08 07:17:59;;;;;;;2.17;1.50;;;;;;;;;;5053421;28;20526;-70
2022/04/08 07:20:25;;;;;;;2.90;1.50;;;;;;;;;;5018418;28;20053;-69
2022/04/08 07:22:51;;;;;;;4.22;1.60;;;;;;;;;;5056465;28;20060;-69
2022/04/08 07:25:18;;;;;;;3.38;1.60;;;;;;;;;;5053817;28;20064;-69
2022/04/08 07:27:45;;;;;;;3.13;1.60;;;;;;;;;;5035700;28;20053;-70
2022/04/08 07:30:11;;;;;;;2.53;1.50;;;;;;;;;;5034511;28;20053;-71
2022/04/08 07:32:38;;;;;;;4.57;1.88;;;;;;;;;;5055007;28;20045;-69
2022/04/08 07:35:04;;;;;;;2.97;1.60;;;;;;;;;;5053631;28;20052;-69
2022/04/08 07:37:30;;;;;;;3.92;1.60;;;;;;;;;;5056172;28;20484;-70
2022/04/08 07:39:56;;;;;;;4.57;1.90;;;;;;;;;;5033625;28;20045;-69
2022/04/08 07:42:23;;;;;;;5.68;1.92;;;;;;;;;;5037876;28;20052;-69
2022/04/08 07:44:49;;;;;;;5.75;1.58;;;;;;;;;;5052631;28;20097;-69
2022/04/08 07:47:16;;;;;;;7.78;2.33;;;;;;;;;;5040774;28;20467;-70
2022/04/08 07:49:42;;;;;;;3.42;1.23;;;;;;;;;;5040270;28;20048;-70
2022/04/08 07:52:08;;;;;;;3.42;1.38;;;;;;;;;;5055672;28;20049;-70
2022/04/08 07:54:34;;;;;;;4.80;2.03;;;;;;;;;;5051549;28;20067;-69
2022/04/08 07:57:00;;;;;;;5.90;2.30;;;;;;;;;;5040851;28;20128;-69
2022/04/08 07:59:26;;;;;;;3.03;1.60;;;;;;;;;;5050798;28;20044;-69
2022/04/08 08:01:52;;;;;;;6.18;1.88;;;;;;;;;;5051227;28;20041;-69
2022/04/08 08:04:18;;;;;;;5.10;1.48;;;;;;;;;;5050208;28;20044;-70
2022/04/08 08:06:44;;;;;;;4.68;1.10;;;;;;;;;;5020719;28;20053;-71
2022/04/08 08:09:10;;;;;;;6.50;1.67;;;;;;;;;;5036566;28;20095;-69
2022/04/08 08:11:36;;;;;;;2.70;1.23;;;;;;;;;;5037876;28;20045;-69
2022/04/08 08:14:03;;;;;;;8.23;1.90;;;;;;;;;;5054581;28;20037;-69
2022/04/08 08:16:29;;;;;;;11.85;1.90;;;;;;;;;;5053210;28;20451;-70
2022/04/08 08:18:56;;;;;;;9.82;1.70;;;;;;;;;;5037874;28;20044;-70
2022/04/08 08:21:26;;;;;;;6.32;1.92;;;;;;;;;;5033567;28;20045;-70
2022/04/08 08:23:52;;;;;;;7.88;2.17;;;;;;;;;;5035561;28;20091;-71
2022/04/08 08:26:18;;;;;;;11.70;2.38;;;;;;;;;;5023908;28;20055;-70
2022/04/08 08:28:44;;;;;;;8.05;2.20;;;;;;;;;;5045144;28;20124;-70
2022/04/08 08:31:10;;;;;;;7.88;1.65;;;;;;;;;;5042362;28;20124;-72
2022/04/08 08:33:36;;;;;;;5.53;1.55;;;;;;;;;;5046968;28;20396;-69
2022/04/08 08:36:03;;;;;;;4.45;1.88;;;;;;;;;;5048496;28;20052;-70
2022/04/08 08:38:29;;;;;;;7.15;2.50;;;;;;;;;;5042115;28;20033;-69
2022/04/08 08:40:56;;;;;;;5.22;1.83;;;;;;;;;;5044465;28;20443;-70
2022/04/08 08:43:22;;;;;;;2.92;1.70;;;;;;;;;;5044172;28;20096;-68
2022/04/08 08:45:48;;;;;;;6.30;2.20;;;;;;;;;;5048097;28;20049;-70
2022/04/08 08:48:15;;;;;;;5.47;2.25;;;;;;;;;;5032394;28;20052;-70
2022/04/08 08:50:45;;;;;;;6.22;2.50;;;;;;;;;;5048559;28;20088;-69
2022/04/08 08:53:12;;;;;;;8.85;2.95;;;;;;;;;;5032724;28;20518;-69
2022/04/08 08:55:38;;;;;;;4.35;2.25;;;;;;;;;;5045318;28;20045;-70
2022/04/08 08:58:04;;;;;;;7.40;2.40;;;;;;;;;;5044938;28;20392;-69
2022/04/08 09:00:30;;;;;;;4.72;2.38;;;;;;;;;;5044149;28;20048;-69
2022/04/08 09:02:56;;;;;;;7.03;3.10;;;;;;;;;;5050471;28;20373;-69
2022/04/08 09:05:24;;;;;;;7.53;2.80;;;;;;;;;;5025667;28;20044;-69
2022/04/08 09:08:00;;;;;;;6.75;2.88;;;;;;;;;;5048854;28;20091;-68
2022/04/08 09:10:26;;;;;;;7.40;2.80;;;;;;;;;;5044154;28;20059;-68
2022/04/08 09:12:56;;;;;;;8.30;2.75;;;;;;;;;;5046186;28;20037;-69
2022/04/08 09:15:23;;;;;;;5.90;2.78;;;;;;;;;;5042483;28;20481;-69
2022/04/08 09:17:49;;;;;;;7.18;3.13;;;;;;;;;;5041172;28;20050;-68
2022/04/08 09:20:15;;;;;;;4.40;1.88;;;;;;;;;;5044742;28;20052;-68
2022/04/08 09:22:41;;;;;;;7.43;2.83;;;;;;;;;;5040460;28;20048;-68
2022/04/08 09:25:10;;;;;;;4.97;1.92;;;;;;;;;;5046195;28;20072;-68
2022/04/08 09:27:40;;;;;;;4.97;2.20;;;;;;;;;;5041978;28;20038;-69
2022/04/08 09:30:07;;;;;;;4.60;2.10;;;;;;;;;;5043911;28;20120;-68
2022/04/08 09:32:34;;;;;;;5.18;2.08;;;;;;;;;;5047632;28;20041;-68
2022/04/08 09:35:00;;;;;;;5.75;1.73;;;;;;;;;;5044890;28;20037;-68
2022/04/08 09:37:26;;;;;;;7.93;2.20;;;;;;;;;;5042535;28;20038;-68
2022/04/08 09:40:07;;;;;;;4.57;1.67;;;;;;;;;;5019973;28;20496;-68
2022/04/08 09:42:46;;;;;;;4.80;1.90;;;;;;;;;;5041098;28;20106;-68
2022/04/08 09:45:13;;;;;;;6.93;2.20;;;;;;;;;;5045032;28;20095;-68
2022/04/08 09:47:39;;;;;;;11.10;2.47;;;;;;;;;;5028624;28;20041;-69
2022/04/08 09:50:07;;;;;;;9.38;2.38;;;;;;;;;;5040154;28;20045;-68
2022/04/08 09:52:33;;;;;;;11.77;3.07;;;;;;;;;;5033970;28;20045;-68
2022/04/08 09:55:00;;;;;;;7.32;2.30;;;;;;;;;;5037295;28;20073;-68
2022/04/08 09:57:27;;;;;;;6.15;2.20;;;;;;;;;;5037262;28;20088;-69
2022/04/08 09:59:59;;;;;;;10.05;2.90;;;;;;;;;;5042345;28;20496;-70
2022/04/08 10:02:26;;;;;;;7.15;2.30;;;;;;;;;;5043926;28;20186;-70
2022/04/08 10:04:55;;;;;;;9.63;2.80;;;;;;;;;;5038172;28;20042;-70
2022/04/08 10:07:21;;;;;;;10.35;2.50;;;;;;;;;;5034017;28;20041;-69
2022/04/08 10:09:51;;;;;;;11.20;3.05;;;;;;;;;;5034816;28;20045;-68
2022/04/08 10:12:39;;;;;;;12.30;3.17;;;;;;;;;;5035702;28;20048;-69
2022/04/08 10:15:11;;;;;;;9.57;2.90;;;;;;;;;;5052563;28;20052;-69
2022/04/08 10:17:36;;;;;;;10.85;3.03;;;;;;;;;;5049166;28;20496;-67
2022/04/08 10:20:22;;;;;;;11.40;2.90;;;;;;;;;;5032880;28;20046;-68
2022/04/08 10:22:48;;;;;;;12.63;3.65;;;;;;;;;;5052192;28;20120;-68
2022/04/08 10:25:17;;;;;;;13.23;2.97;;;;;;;;;;5050523;28;20531;-69
2022/04/08 10:27:44;;;;;;;;;;;;;;;;;;5046004;28;20048;-68
2022/04/08 10:30:11;;;;;;;16.27;3.92;;;;;;;;;;5021969;28;20272;-69
2022/04/08 10:32:38;;;;;;;13.68;3.80;;;;;;;;;;5032908;28;20049;-68
2022/04/08 10:35:20;;;;;;;9.00;2.10;;;;;;;;;;5046346;28;20049;-70
2022/04/08 10:37:57;;;;;;;9.25;2.88;;;;;;;;;;5034470;28;20098;-70
2022/04/08 10:40:31;;;;;;;11.32;2.97;;;;;;;;;;5029514;28;20045;-69
2022/04/08 10:42:57;;;;;;;8.73;3.08;;;;;;;;;;5023324;28;20052;-69
2022/04/08 10:45:23;;;;;;;9.32;3.08;;;;;;;;;;5038650;28;20164;-70
2022/04/08 10:47:50;;;;;;;11.35;3.50;;;;;;;;;;5032419;28;20050;-69
2022/04/08 10:50:30;;;;;;;10.38;2.28;;;;;;;;;;5033252;28;20049;-69
2022/04/08 10:53:09;;;;;;;5.85;1.63;;;;;;;;;;5052583;28;20365;-69
2022/04/08 10:56:07;;;;;;;6.53;1.75;;;;;;;;;;5052951;28;20053;-70
2022/04/08 10:58:33;;;;;;;7.32;2.00;;;;;;;;;;5014471;28;20054;-69
2022/04/08 11:01:00;;;;;;;8.98;2.22;;;;;;;;;;5045207;28;20052;-69
2022/04/08 11:03:27;;;;;;;8.88;1.67;;;;;;;;;;5034389;28;20048;-69
2022/04/08 11:05:53;;;;;;;6.10;2.00;;;;;;;;;;5040488;28;20084;-69
2022/04/08 11:08:19;;;;;;;6.55;1.70;;;;;;;;;;5025077;28;20037;-69
2022/04/08 11:10:45;;;;;;;8.23;2.08;;;;;;;;;;5038526;28;20171;-69
2022/04/08 11:13:14;;;;;;;7.07;1.80;;;;;;;;;;5053586;28;20496;-69
2022/04/08 11:15:44;;;;;;;8.13;2.42;;;;;;;;;;5048155;28;20049;-69
2022/04/08 11:18:11;;;;;;;6.40;2.30;;;;;;;;;;5039726;28;20045;-68
2022/04/08 11:20:37;;;;;;;8.02;2.30;;;;;;;;;;5044005;28;20439;-68
2022/04/08 11:23:03;;;;;;;9.05;2.92;;;;;;;;;;5030635;28;20042;-69
2022/04/08 11:25:30;;;;;;;17.60;3.28;;;;;;;;;;5032952;28;20060;-67
2022/04/08 11:28:06;;;;;;;10.73;3.45;;;;;;;;;;5034876;28;20056;-68
2022/04/08 11:30:33;;;;;;;7.75;2.20;;;;;;;;;;5042761;28;20107;-69
2022/04/08 11:33:00;;;;;;;9.05;2.72;;;;;;;;;;5045272;28;20084;-68
2022/04/08 11:35:31;;;;;;;9.55;3.35;;;;;;;;;;5033084;28;20041;-68
2022/04/08 11:37:57;;;;;;;9.75;2.25;;;;;;;;;;5031853;28;20060;-68
2022/04/08 11:40:23;;;;;;;7.82;2.30;;;;;;;;;;5042176;28;20042;-68
2022/04/08 11:42:49;;;;;;;9.35;3.15;;;;;;;;;;5031317;28;20042;-68
2022/04/08 11:45:16;;;;;;;7.70;2.88;;;;;;;;;;5045131;28;20099;-68
2022/04/08 11:47:48;;;;;;;12.27;3.15;;;;;;;;;;5031923;28;20041;-69
2022/04/08 11:50:23;;;;;;;9.95;2.70;;;;;;;;;;5012314;28;20396;-68
2022/04/08 11:52:55;;;;;;;27.92;6.38;;;;;;;;;;5038128;28;20117;-68
2022/04/08 11:55:25;;;;;;;7.82;2.30;;;;;;;;;;5027639;28;20081;-68
2022/04/08 11:57:52;;;;;;;8.00;3.08;;;;;;;;;;5050209;28;20459;-68
2022/04/08 12:00:23;;;;;;;11.68;2.83;;;;;;;;;;5014599;28;20053;-68
2022/04/08 12:02:49;;;;;;;9.70;2.72;;;;;;;;;;5042399;28;20049;-68
2022/04/08 12:05:19;;;;;;;10.63;2.80;;;;;;;;;;5040953;28;20043;-69
2022/04/08 12:07:45;;;;;;;7.43;2.65;;;;;;;;;;5054956;28;20041;-70
2022/04/08 12:10:11;;;;;;;7.38;2.60;;;;;;;;;;5048613;28;20098;-70
2022/04/08 12:12:37;;;;;;;10.18;2.90;;;;;;;;;;5017881;28;20485;-69
2022/04/08 12:15:10;;;;;;;5.88;2.78;;;;;;;;;;5046726;28;20526;-70
2022/04/08 12:17:39;;;;;;;8.48;2.72;;;;;;;;;;5053688;28;20412;-70
2022/04/08 12:20:06;;;;;;;6.35;1.90;;;;;;;;;;5053999;28;20048;-70
2022/04/08 12:22:33;;;;;;;9.75;2.30;;;;;;;;;;5055670;28;20041;-69
2022/04/08 12:25:00;;;;;;;6.45;2.15;;;;;;;;;;5051010;28;20080;-70
2022/04/08 12:27:31;;;;;;;6.38;1.98;;;;;;;;;;5048830;28;20091;-70
2022/04/08 12:30:01;;;;;;;8.75;2.30;;;;;;;;;;5035467;28;20049;-69
2022/04/08 12:32:34;;;;;;;9.50;1.90;;;;;;;;;;5045157;28;20496;-70
2022/04/08 12:35:00;;;;;;;9.85;2.83;;;;;;;;;;5054860;28;20083;-69
2022/04/08 12:37:27;;;;;;;8.18;2.00;;;;;;;;;;5032714;28;20081;-69
2022/04/08 12:39:53;;;;;;;5.00;1.42;;;;;;;;;;5049128;28;20372;-69
2022/04/08 12:42:19;;;;;;;5.35;1.17;;;;;;;;;;5035237;28;20067;-67
2022/04/08 12:44:45;;;;;;;4.22;1.20;;;;;;;;;;5036766;28;20120;-68
2022/04/08 12:47:11;;;;;;;5.53;1.73;;;;;;;;;;5021374;28;20088;-68
2022/04/08 12:49:37;;;;;;;4.30;1.38;;;;;;;;;;5050203;28;20136;-69
2022/04/08 12:52:03;;;;;;;4.45;1.30;;;;;;;;;;5048201;28;20053;-68
2022/04/08 12:54:29;;;;;;;6.95;1.95;;;;;;;;;;5041453;28;20075;-68
2022/04/08 12:56:55;;;;;;;3.70;1.23;;;;;;;;;;5054838;28;20528;-68
2022/04/08 12:59:21;;;;;;;3.50;1.20;;;;;;;;;;5048317;28;20064;-68
2022/04/08 13:01:47;;;;;;;5.65;1.50;;;;;;;;;;5040241;28;20492;-70
2022/04/08 13:04:13;;;;;;;8.27;2.03;;;;;;;;;;5043218;28;20037;-69
2022/04/08 13:06:39;;;;;;;4.88;1.33;;;;;;;;;;5047457;28;20044;-69
2022/04/08 13:09:05;;;;;;;9.43;1.63;;;;;;;;;;5054856;28;20436;-69
2022/04/08 13:11:33;;;;;;;7.82;1.65;;;;;;;;;;5036004;28;20049;-71
2022/04/08 13:13:59;;;;;;;8.30;2.33;;;;;;;;;;5050416;28;20500;-70
2022/04/08 13:16:25;;;;;;;8.95;2.22;;;;;;;;;;5035007;28;20054;-69
2022/04/08 13:18:51;;;;;;;7.13;1.75;;;;;;;;;;5050808;28;20551;-68
2022/04/08 13:21:18;;;;;;;7.18;1.92;;;;;;;;;;5040494;28;20120;-68
2022/04/08 13:23:44;;;;;;;5.05;1.80;;;;;;;;;;5052728;28;20056;-67
2022/04/08 13:26:11;;;;;;;6.07;1.63;;;;;;;;;;5042841;28;20496;-68
2022/04/08 13:28:37;;;;;;;4.32;1.27;;;;;;;;;;5045543;28;20496;-68
2022/04/08 13:31:03;;;;;;;4.05;1.30;;;;;;;;;;5026980;28;20048;-68
2022/04/08 13:33:29;;;;;;;15.23;2.58;;;;;;;;;;5018888;28;20123;-68
2022/04/08 13:35:56;;;;;;;5.65;1.25;;;;;;;;;;5052219;28;20129;-67
2022/04/08 13:38:25;;;;;;;5.05;1.00;;;;;;;;;;5019437;28;20053;-68
2022/04/08 13:40:51;;;;;;;7.50;1.60;;;;;;;;;;5033404;28;20064;-67
2022/04/08 13:43:17;;;;;;;8.23;2.35;;;;;;;;;;5037748;28;20083;-68
2022/04/08 13:45:43;;;;;;;6.63;1.75;;;;;;;;;;5046923;28;20097;-68
2022/04/08 13:48:09;;;;;;;14.30;2.92;;;;;;;;;;5020710;28;20512;-67
2022/04/08 13:50:35;;;;;;;5.47;1.45;;;;;;;;;;5034155;28;20152;-66
2022/04/08 13:53:02;;;;;;;5.13;1.15;;;;;;;;;;5032798;28;20106;-67
2022/04/08 13:55:28;;;;;;;6.28;1.50;;;;;;;;;;5042220;28;20123;-67
2022/04/08 13:57:54;;;;;;;16.55;3.63;;;;;;;;;;5041978;28;20637;-67
2022/04/08 14:00:20;;;;;;;15.77;3.03;;;;;;;;;;5035133;28;20041;-68
2022/04/08 14:02:46;;;;;;;6.40;1.85;;;;;;;;;;5042378;28;20072;-68
2022/04/08 14:05:12;;;;;;;22.95;4.68;;;;;;;;;;5029357;28;20132;-67
2022/04/08 14:07:38;;;;;;;10.93;2.30;;;;;;;;;;5036935;28;20061;-67
2022/04/08 14:10:05;;;;;;;8.73;1.15;;;;;;;;;;5017225;28;20037;-68
2022/04/08 14:12:31;;;;;;;6.18;1.92;;;;;;;;;;5050239;28;20052;-67
2022/04/08 14:14:57;;;;;;;15.50;4.25;;;;;;;;;;5052032;28;20033;-67
2022/04/08 14:17:23;;;;;;;3.83;1.00;;;;;;;;;;5050527;28;20043;-68
2022/04/08 14:19:49;;;;;;;7.95;1.42;;;;;;;;;;5015574;28;20397;-67
2022/04/08 14:22:15;;;;;;;3.40;1.00;;;;;;;;;;5025342;28;20520;-67
2022/04/08 14:24:41;;;;;;;16.80;3.72;;;;;;;;;;5038587;28;20057;-68
2022/04/08 14:27:07;;;;;;;12.25;1.98;;;;;;;;;;5036761;28;20463;-68
2022/04/08 14:29:33;;;;;;;15.60;3.63;;;;;;;;;;5033058;28;20072;-67
2022/04/08 14:31:59;;;;;;;16.92;3.15;;;;;;;;;;5037783;28;20499;-68
2022/04/08 14:34:25;;;;;;;4.43;1.10;;;;;;;;;;5046278;28;20041;-68
2022/04/08 14:36:51;;;;;;;5.00;1.40;;;;;;;;;;5043099;28;20045;-68
2022/04/08 14:39:17;;;;;;;14.00;2.22;;;;;;;;;;5036256;28;20042;-68